Ballymahon, Ireland
Current Conditions -  °F | °C
As of 7:00 AM on Saturday 25 Oct 2014 (Local Time) from EIKN Reporting Station
Broken Clouds Broken Clouds  
Wind Chill: 43°   Ceiling: 4100
Heat Index: 48°   Visibility: 6mi
Dew Point: 45°   Wind: 12mph
Humidity: 87%   Direction: 220°SW
Pressure: 29.74"   Gusts: NA
Location:  53.56°N, 7.77°W
Report Text: EIKN 250700Z 22010KT 9999 SCT028 BKN041 09/07 Q1007 NOSIG
Loading
Personal Weather Stations






























Interactive Weather Map
Tropical Storm Tracking
New forecast layout! Learn more

10-Day Weather Forecast

Advertisements
Track Severe Weather on mobile